Gh Harmony — VRNJ6 — position and weather

sailwx.info

Track history (hours):
 
Tides and Currents Weather Stations Pressure Air Temp Water Temp Dewpoint Dewpoint Depression Visibility Wind Speed Wind Dir Waves Ship Positions

Gh Harmony

Last reported at 2018-Feb-20 19:26 UTC. Time now 2018-Feb-21 17:47 UTC.
Position N 30°59' E 122°30'.

Length 229 m; draft 8 m.

Type: Cargo ship. MMSI: 477848100.

Date/timePositionNaut miles runAvg speedWind from/ knotsBaromVisibWave heightAir tempDewpointWater temp
2018-Feb-20 19:26N 30°59' E 122°30'612.1
2018-Feb-20 18:58N 31°01' E 122°23'511.7
2018-Feb-20 18:30N 31°02' E 122°17'611.8
2018-Feb-20 18:00N 31°03' E 122°11'5 9.2
2018-Feb-20 17:28N 31°04' E 122°05'3 6.4
2018-Feb-20 17:00N 31°05' E 122°02'5 9.9
2018-Feb-20 16:30N 31°07' E 121°56'5 9.5
2018-Feb-20 15:59N 31°10' E 121°52'4 8.5
2018-Feb-20 15:30N 31°13' E 121°49'  
2018-Feb-15 18:57N 31°36' E 121°18'0 0.0
2018-Feb-15 18:30N 31°36' E 121°18'0 0.0
2018-Feb-15 18:00N 31°36' E 121°18'0 0.0
2018-Feb-15 17:30N 31°36' E 121°18'0 0.0
2018-Feb-15 17:00N 31°36' E 121°18'0 0.0
2018-Feb-15 16:30N 31°36' E 121°18'0 0.0
2018-Feb-15 16:00N 31°36' E 121°18'0 0.1
2018-Feb-15 15:27N 31°36' E 121°18'0 0.4
2018-Feb-15 15:00N 31°36' E 121°18'0 0.2
2018-Feb-15 14:30N 31°36' E 121°19'0 0.0
2018-Feb-15 14:00N 31°36' E 121°19'0 0.0
2018-Feb-15 13:30N 31°36' E 121°19'0 0.1
2018-Feb-15 13:00N 31°36' E 121°19'0 0.0
2018-Feb-15 12:30N 31°36' E 121°19'0 0.0
2018-Feb-15 12:00N 31°36' E 121°19'0 0.0
2018-Feb-15 11:30N 31°36' E 121°19'0 0.0
2018-Feb-15 10:57N 31°36' E 121°19'0 0.1
2018-Feb-15 10:30N 31°36' E 121°19'0 0.0
2018-Feb-15 10:00N 31°36' E 121°19'0 0.0
2018-Feb-15 09:30N 31°36' E 121°19'0 0.0
2018-Feb-15 09:00N 31°36' E 121°19'0 0.1
2018-Feb-15 08:27N 31°36' E 121°19'0 0.1
2018-Feb-15 08:00N 31°36' E 121°18'0 0.4
2018-Feb-15 07:27N 31°36' E 121°18'0 0.1
2018-Feb-15 07:00N 31°36' E 121°18'0 0.1
2018-Feb-15 06:21N 31°36' E 121°18'0 0.0
2018-Feb-15 06:00N 31°36' E 121°18'0 0.0
2018-Feb-15 05:30N 31°36' E 121°18'0 0.0
2018-Feb-15 05:00N 31°36' E 121°18'0 0.0
2018-Feb-15 04:30N 31°36' E 121°18'0 0.0
2018-Feb-15 04:00N 31°36' E 121°18'0 0.1
2018-Feb-15 03:27N 31°36' E 121°18'0 0.0
2018-Feb-15 03:00N 31°36' E 121°18'0 0.3
2018-Feb-15 02:30N 31°36' E 121°18'0 0.4
2018-Feb-15 02:00N 31°36' E 121°19'0 0.1
2018-Feb-15 01:30N 31°36' E 121°19'0 0.0
2018-Feb-15 01:00N 31°36' E 121°19'0 0.0
2018-Feb-15 00:30N 31°36' E 121°19'0 0.0
2018-Feb-15 00:00N 31°36' E 121°19'0 0.0
2018-Feb-14 23:30N 31°36' E 121°19'0 0.0
2018-Feb-14 23:00N 31°36' E 121°19'0 0.0
2018-Feb-14 22:30N 31°36' E 121°19'0 0.0
2018-Feb-14 22:00N 31°36' E 121°19'0 0.0
2018-Feb-14 21:30N 31°36' E 121°19'0 0.0
2018-Feb-14 21:00N 31°36' E 121°19'0 0.0
2018-Feb-14 20:27N 31°36' E 121°19'0 0.1
2018-Feb-14 20:00N 31°36' E 121°19'0 0.2
2018-Feb-14 19:30N 31°36' E 121°18'0 0.3
2018-Feb-14 18:57N 31°36' E 121°18'0 0.1
2018-Feb-14 18:30N 31°36' E 121°18'0 0.1
2018-Feb-14 17:57N 31°36' E 121°18'0 0.0
2018-Feb-14 17:30N 31°36' E 121°18'0 0.0
2018-Feb-14 16:57N 31°36' E 121°18'0 0.0
2018-Feb-14 16:30N 31°36' E 121°18'0 0.0
2018-Feb-14 15:57N 31°36' E 121°18'0 0.1
2018-Feb-14 15:30N 31°36' E 121°18'0 0.0
2018-Feb-14 15:00N 31°36' E 121°18'0 0.5
2018-Feb-14 14:30N 31°36' E 121°19'0 0.1
2018-Feb-14 13:54N 31°36' E 121°19'0 0.0
2018-Feb-14 13:30N 31°36' E 121°19'0 0.0
2018-Feb-14 13:00N 31°36' E 121°19'0 0.0
2018-Feb-14 12:30N 31°36' E 121°19'0 0.0
2018-Feb-14 12:00N 31°36' E 121°19'0 0.0
2018-Feb-14 11:30N 31°36' E 121°19'0 0.0
2018-Feb-14 11:00N 31°36' E 121°19'0 0.0
2018-Feb-14 10:30N 31°36' E 121°19'0 0.0
2018-Feb-14 10:00N 31°36' E 121°19'0 0.0
2018-Feb-14 09:30N 31°36' E 121°19'0 0.0
2018-Feb-14 09:00N 31°36' E 121°19'0 0.1
2018-Feb-14 08:30N 31°36' E 121°19'0 0.6
2018-Feb-14 08:00N 31°36' E 121°18'0 0.2
2018-Feb-14 07:30N 31°36' E 121°18'0 0.2
2018-Feb-14 07:01N 31°36' E 121°18'3 6.6
2018-Feb-14 06:30N 31°33' E 121°20'611.6
2018-Feb-14 06:00N 31°30' E 121°26'510.7
2018-Feb-14 05:31N 31°26' E 121°30'14 9.6
2018-Feb-14 04:05N 31°19' E 121°44'1 8.0
2018-Feb-14 04:00N 31°19' E 121°44'5 9.7
2018-Feb-14 03:30N 31°17' E 121°50'5 9.4
2018-Feb-14 02:59N 31°16' E 121°55'5 9.4
2018-Feb-14 02:30N 31°15' E 122°00'4 8.4
2018-Feb-14 02:00N 31°14' E 122°05'6 9.0
2018-Feb-14 01:20N 31°11' E 122°11'3 9.8
2018-Feb-14 01:01N 31°09' E 122°14'611.1
2018-Feb-14 00:31N 31°06' E 122°20'510.6
2018-Feb-14 00:00N 31°07' E 122°26'7 8.0
2018-Feb-13 23:09N 31°07' E 122°34'10 0.4
2018-Feb-13 00:03N 31°10' E 122°44'0 0.1
2018-Feb-13 00:00N 31°10' E 122°44'0 0.1
2018-Feb-12 23:03N 31°10' E 122°44'0 0.1
2018-Feb-12 23:00N 31°10' E 122°44'0 0.1
2018-Feb-12 21:54N 31°10' E 122°44'0 0.1
2018-Feb-12 21:30N 31°10' E 122°44'0 0.0
2018-Feb-12 19:09N 31°10' E 122°45'  
Track history (hours):
 
Tides and Currents Weather Stations Pressure Air Temp Water Temp Dewpoint Dewpoint Depression Visibility Wind Speed Wind Dir Waves Ship Positions

Gh Harmony

Last reported at 2018-Feb-20 19:26 UTC. Time now 2018-Feb-21 17:47 UTC.
Position N 30°59' E 122°30'.

Length 229 m; draft 8 m.

Type: Cargo ship. MMSI: 477848100.

Date/timePositionNaut miles runAvg speedWind from/ knotsBaromVisibWave heightAir tempDewpointWater temp
2018-Feb-20 19:26N 30°59' E 122°30'612.1
2018-Feb-20 18:58N 31°01' E 122°23'511.7
2018-Feb-20 18:30N 31°02' E 122°17'611.8
2018-Feb-20 18:00N 31°03' E 122°11'5 9.2
2018-Feb-20 17:28N 31°04' E 122°05'3 6.4
2018-Feb-20 17:00N 31°05' E 122°02'5 9.9
2018-Feb-20 16:30N 31°07' E 121°56'5 9.5
2018-Feb-20 15:59N 31°10' E 121°52'4 8.5
2018-Feb-20 15:30N 31°13' E 121°49'  
2018-Feb-15 18:57N 31°36' E 121°18'0 0.0
2018-Feb-15 18:30N 31°36' E 121°18'0 0.0
2018-Feb-15 18:00N 31°36' E 121°18'0 0.0
2018-Feb-15 17:30N 31°36' E 121°18'0 0.0
2018-Feb-15 17:00N 31°36' E 121°18'0 0.0
2018-Feb-15 16:30N 31°36' E 121°18'0 0.0
2018-Feb-15 16:00N 31°36' E 121°18'0 0.1
2018-Feb-15 15:27N 31°36' E 121°18'0 0.4
2018-Feb-15 15:00N 31°36' E 121°18'0 0.2
2018-Feb-15 14:30N 31°36' E 121°19'0 0.0
2018-Feb-15 14:00N 31°36' E 121°19'0 0.0
2018-Feb-15 13:30N 31°36' E 121°19'0 0.1
2018-Feb-15 13:00N 31°36' E 121°19'0 0.0
2018-Feb-15 12:30N 31°36' E 121°19'0 0.0
2018-Feb-15 12:00N 31°36' E 121°19'0 0.0
2018-Feb-15 11:30N 31°36' E 121°19'0 0.0
2018-Feb-15 10:57N 31°36' E 121°19'0 0.1
2018-Feb-15 10:30N 31°36' E 121°19'0 0.0
2018-Feb-15 10:00N 31°36' E 121°19'0 0.0
2018-Feb-15 09:30N 31°36' E 121°19'0 0.0
2018-Feb-15 09:00N 31°36' E 121°19'0 0.1
2018-Feb-15 08:27N 31°36' E 121°19'0 0.1
2018-Feb-15 08:00N 31°36' E 121°18'0 0.4
2018-Feb-15 07:27N 31°36' E 121°18'0 0.1
2018-Feb-15 07:00N 31°36' E 121°18'0 0.1
2018-Feb-15 06:21N 31°36' E 121°18'0 0.0
2018-Feb-15 06:00N 31°36' E 121°18'0 0.0
2018-Feb-15 05:30N 31°36' E 121°18'0 0.0
2018-Feb-15 05:00N 31°36' E 121°18'0 0.0
2018-Feb-15 04:30N 31°36' E 121°18'0 0.0
2018-Feb-15 04:00N 31°36' E 121°18'0 0.1
2018-Feb-15 03:27N 31°36' E 121°18'0 0.0
2018-Feb-15 03:00N 31°36' E 121°18'0 0.3
2018-Feb-15 02:30N 31°36' E 121°18'0 0.4
2018-Feb-15 02:00N 31°36' E 121°19'0 0.1
2018-Feb-15 01:30N 31°36' E 121°19'0 0.0
2018-Feb-15 01:00N 31°36' E 121°19'0 0.0
2018-Feb-15 00:30N 31°36' E 121°19'0 0.0
2018-Feb-15 00:00N 31°36' E 121°19'0 0.0
2018-Feb-14 23:30N 31°36' E 121°19'0 0.0
2018-Feb-14 23:00N 31°36' E 121°19'0 0.0
2018-Feb-14 22:30N 31°36' E 121°19'0 0.0
2018-Feb-14 22:00N 31°36' E 121°19'0 0.0
2018-Feb-14 21:30N 31°36' E 121°19'0 0.0
2018-Feb-14 21:00N 31°36' E 121°19'0 0.0
2018-Feb-14 20:27N 31°36' E 121°19'0 0.1
2018-Feb-14 20:00N 31°36' E 121°19'0 0.2
2018-Feb-14 19:30N 31°36' E 121°18'0 0.3
2018-Feb-14 18:57N 31°36' E 121°18'0 0.1
2018-Feb-14 18:30N 31°36' E 121°18'0 0.1
2018-Feb-14 17:57N 31°36' E 121°18'0 0.0
2018-Feb-14 17:30N 31°36' E 121°18'0 0.0
2018-Feb-14 16:57N 31°36' E 121°18'0 0.0
2018-Feb-14 16:30N 31°36' E 121°18'0 0.0
2018-Feb-14 15:57N 31°36' E 121°18'0 0.1
2018-Feb-14 15:30N 31°36' E 121°18'0 0.0
2018-Feb-14 15:00N 31°36' E 121°18'0 0.5
2018-Feb-14 14:30N 31°36' E 121°19'0 0.1
2018-Feb-14 13:54N 31°36' E 121°19'0 0.0
2018-Feb-14 13:30N 31°36' E 121°19'0 0.0
2018-Feb-14 13:00N 31°36' E 121°19'0 0.0
2018-Feb-14 12:30N 31°36' E 121°19'0 0.0
2018-Feb-14 12:00N 31°36' E 121°19'0 0.0
2018-Feb-14 11:30N 31°36' E 121°19'0 0.0
2018-Feb-14 11:00N 31°36' E 121°19'0 0.0
2018-Feb-14 10:30N 31°36' E 121°19'0 0.0
2018-Feb-14 10:00N 31°36' E 121°19'0 0.0
2018-Feb-14 09:30N 31°36' E 121°19'0 0.0
2018-Feb-14 09:00N 31°36' E 121°19'0 0.1
2018-Feb-14 08:30N 31°36' E 121°19'0 0.6
2018-Feb-14 08:00N 31°36' E 121°18'0 0.2
2018-Feb-14 07:30N 31°36' E 121°18'0 0.2
2018-Feb-14 07:01N 31°36' E 121°18'3 6.6
2018-Feb-14 06:30N 31°33' E 121°20'611.6
2018-Feb-14 06:00N 31°30' E 121°26'510.7
2018-Feb-14 05:31N 31°26' E 121°30'14 9.6
2018-Feb-14 04:05N 31°19' E 121°44'1 8.0
2018-Feb-14 04:00N 31°19' E 121°44'5 9.7
2018-Feb-14 03:30N 31°17' E 121°50'5 9.4
2018-Feb-14 02:59N 31°16' E 121°55'5 9.4
2018-Feb-14 02:30N 31°15' E 122°00'4 8.4
2018-Feb-14 02:00N 31°14' E 122°05'6 9.0
2018-Feb-14 01:20N 31°11' E 122°11'3 9.8
2018-Feb-14 01:01N 31°09' E 122°14'611.1
2018-Feb-14 00:31N 31°06' E 122°20'510.6
2018-Feb-14 00:00N 31°07' E 122°26'7 8.0
2018-Feb-13 23:09N 31°07' E 122°34'10 0.4
2018-Feb-13 00:03N 31°10' E 122°44'0 0.1
2018-Feb-13 00:00N 31°10' E 122°44'0 0.1
2018-Feb-12 23:03N 31°10' E 122°44'0 0.1
2018-Feb-12 23:00N 31°10' E 122°44'0 0.1
2018-Feb-12 21:54N 31°10' E 122°44'0 0.1
2018-Feb-12 21:30N 31°10' E 122°44'0 0.0
2018-Feb-12 19:09N 31°10' E 122°45'  

Dump ship's entire track history